createdAt,value
2023-04-17T00:01:52.402Z,19.60
2023-04-17T00:05:03.222Z,20.20
2023-04-17T00:08:16.170Z,18.70
2023-04-17T00:11:30.510Z,19.40
2023-04-17T00:14:49.662Z,17.60
2023-04-17T00:18:05.687Z,20.30
2023-04-17T00:21:21.922Z,17.60
2023-04-17T00:24:32.707Z,19.10
2023-04-17T00:27:51.940Z,21.70
2023-04-17T00:31:02.865Z,19.80
2023-04-17T00:34:14.916Z,20.80
2023-04-17T00:37:37.188Z,19.50
2023-04-17T00:40:50.946Z,19.00
2023-04-17T00:44:02.990Z,23.10
2023-04-17T00:47:25.178Z,19.30
2023-04-17T00:50:44.591Z,20.70
2023-04-17T00:54:05.983Z,17.10
2023-04-17T00:57:18.858Z,17.10
2023-04-17T01:00:30.753Z,22.10
2023-04-17T01:03:42.866Z,17.90
2023-04-17T01:07:11.950Z,16.90
2023-04-17T01:10:25.192Z,18.10
2023-04-17T01:13:46.566Z,18.70
2023-04-17T01:16:57.376Z,20.30
2023-04-17T01:20:10.596Z,19.30
2023-04-17T01:23:24.235Z,19.30
2023-04-17T01:26:40.415Z,19.50
2023-04-17T01:29:52.983Z,17.70
2023-04-17T01:33:04.869Z,23.60
2023-04-17T01:36:18.725Z,20.50
2023-04-17T01:39:41.347Z,18.00
2023-04-17T01:43:01.553Z,19.90
2023-04-17T01:46:13.373Z,19.30
2023-04-17T01:49:24.280Z,21.10
2023-04-17T01:52:35.126Z,21.90
2023-04-17T01:55:55.412Z,19.10
2023-04-17T01:59:06.318Z,19.30
2023-04-17T02:02:18.461Z,21.90
2023-04-17T02:05:39.492Z,19.00
2023-04-17T02:08:52.951Z,20.20
2023-04-17T02:12:05.792Z,17.60
2023-04-17T02:15:20.817Z,20.50
2023-04-17T02:18:33.053Z,24.00
2023-04-17T02:21:52.268Z,22.10
2023-04-17T02:25:05.141Z,20.60
2023-04-17T02:28:08.031Z,21.50
2023-04-17T02:31:20.875Z,28.20
2023-04-17T02:34:33.096Z,22.10
2023-04-17T02:37:44.935Z,21.90
2023-04-17T02:41:04.111Z,21.40
2023-04-17T02:44:17.439Z,23.70
2023-04-17T02:47:28.236Z,19.50
2023-04-17T02:50:39.151Z,22.30
2023-04-17T02:53:53.249Z,22.80
2023-04-17T02:56:55.744Z,22.70
2023-04-17T03:00:23.340Z,21.20
2023-04-17T03:03:37.953Z,20.30
2023-04-17T03:06:58.444Z,19.10
2023-04-17T03:10:11.504Z,21.90
2023-04-17T03:13:39.064Z,22.00
2023-04-17T03:16:51.231Z,22.80
2023-04-17T03:20:02.214Z,25.60
2023-04-17T03:23:17.822Z,22.50
2023-04-17T03:26:47.595Z,22.50
2023-04-17T03:30:10.436Z,20.30
2023-04-17T03:33:21.453Z,20.30
2023-04-17T03:36:33.644Z,21.70
2023-04-17T03:40:01.210Z,24.20
2023-04-17T03:43:12.163Z,23.10
2023-04-17T03:46:25.266Z,22.70
2023-04-17T03:49:37.191Z,21.50
2023-04-17T03:52:50.027Z,20.70
2023-04-17T03:56:01.826Z,22.90
2023-04-17T03:59:07.993Z,22.90
2023-04-17T04:02:35.720Z,27.60
2023-04-17T04:05:49.387Z,24.80
2023-04-17T04:09:01.449Z,30.80
2023-04-17T04:12:17.290Z,30.60
2023-04-17T04:15:28.545Z,26.70
2023-04-17T04:18:39.398Z,33.40
2023-04-17T04:21:52.051Z,33.20
2023-04-17T04:25:04.460Z,32.30
2023-04-17T04:28:15.670Z,35.90
2023-04-17T04:31:36.068Z,30.00
2023-04-17T04:34:48.365Z,33.70
2023-04-17T04:38:02.387Z,37.10
2023-04-17T04:41:21.735Z,40.30
2023-04-17T04:44:41.424Z,36.10
2023-04-17T04:48:00.542Z,38.40
2023-04-17T04:51:12.438Z,33.60
2023-04-17T04:54:24.872Z,34.80
2023-04-17T04:57:40.424Z,35.20
2023-04-17T05:00:44.426Z,30.90
2023-04-17T05:03:55.413Z,33.40
2023-04-17T05:07:06.631Z,29.40
2023-04-17T05:10:17.443Z,32.40
2023-04-17T05:13:22.469Z,31.90
2023-04-17T05:16:28.430Z,31.00
2023-04-17T05:19:47.727Z,30.90
2023-04-17T05:23:03.132Z,29.20
2023-04-17T05:26:14.025Z,28.50
2023-04-17T05:29:26.002Z,29.90
2023-04-17T05:32:28.645Z,29.40
2023-04-17T05:35:40.271Z,31.20
2023-04-17T05:38:53.013Z,29.70
2023-04-17T05:42:05.658Z,33.20
2023-04-17T05:45:17.411Z,27.90
2023-04-17T05:48:28.840Z,31.10
2023-04-17T05:51:47.754Z,27.50
2023-04-17T05:54:58.613Z,31.80
2023-04-17T05:58:23.133Z,27.90
2023-04-17T06:01:35.592Z,27.40
2023-04-17T06:04:40.899Z,33.60
2023-04-17T06:07:55.507Z,30.60
2023-04-17T06:11:06.323Z,33.40
2023-04-17T06:14:17.191Z,30.10
2023-04-17T06:17:29.386Z,32.30
2023-04-17T06:20:56.979Z,33.80
2023-04-17T06:24:09.581Z,35.20
2023-04-17T06:27:22.967Z,38.90
2023-04-17T06:30:35.975Z,43.20
2023-04-17T06:33:47.784Z,32.50
2023-04-17T06:36:58.623Z,36.20
2023-04-17T06:40:09.344Z,36.00
2023-04-17T06:43:28.477Z,37.00
2023-04-17T06:46:39.228Z,35.80
2023-04-17T06:49:53.937Z,31.80
2023-04-17T06:52:58.723Z,35.90
2023-04-17T06:56:02.229Z,34.20
2023-04-17T06:59:15.340Z,32.40
2023-04-17T07:02:30.913Z,34.60
2023-04-17T07:05:36.782Z,30.00
2023-04-17T07:08:49.789Z,30.20
2023-04-17T07:11:52.308Z,30.10
2023-04-17T07:14:55.066Z,30.80
2023-04-17T07:18:15.123Z,32.40
2023-04-17T07:21:34.306Z,31.40
2023-04-17T07:24:53.382Z,31.20
2023-04-17T07:28:04.605Z,30.80
2023-04-17T07:31:32.593Z,31.60
2023-04-17T07:34:45.001Z,22.40
2023-04-17T07:38:04.288Z,30.90
2023-04-17T07:41:23.760Z,28.90
2023-04-17T07:44:42.975Z,33.90
2023-04-17T07:48:10.561Z,31.90
2023-04-17T07:51:22.658Z,30.80
2023-04-17T07:54:33.414Z,31.90
2023-04-17T07:57:53.353Z,26.80
2023-04-17T08:01:13.092Z,35.60
2023-04-17T08:04:32.463Z,34.40
2023-04-17T08:07:43.271Z,33.20
2023-04-17T08:10:58.870Z,30.30
2023-04-17T08:14:12.859Z,28.40
2023-04-17T08:17:15.752Z,28.10
2023-04-17T08:20:27.966Z,31.40
2023-04-17T08:23:39.706Z,28.10
2023-04-17T08:26:51.887Z,30.60
2023-04-17T08:30:05.732Z,28.50
2023-04-17T08:33:10.368Z,29.90
2023-04-17T08:36:21.219Z,28.90
2023-04-17T08:39:33.191Z,39.30
2023-04-17T08:42:46.487Z,28.10
2023-04-17T08:45:59.972Z,30.50
2023-04-17T08:49:13.971Z,34.30
2023-04-17T08:52:32.432Z,32.40
2023-04-17T08:55:46.149Z,33.60
2023-04-17T08:59:05.799Z,32.10
2023-04-17T09:02:18.875Z,35.20
2023-04-17T09:05:39.225Z,33.00
2023-04-17T09:09:00.494Z,32.10
2023-04-17T09:12:11.459Z,35.40
2023-04-17T09:15:22.393Z,33.80
2023-04-17T09:18:34.058Z,32.60
2023-04-17T09:21:40.442Z,35.90
2023-04-17T09:25:00.232Z,35.90
2023-04-17T09:28:13.145Z,31.90
2023-04-17T09:31:26.370Z,32.10
2023-04-17T09:34:45.254Z,33.50
2023-04-17T09:37:59.092Z,38.30
2023-04-17T09:41:10.242Z,29.40
2023-04-17T09:44:30.527Z,31.30
2023-04-17T09:47:41.271Z,30.10
2023-04-17T09:50:52.853Z,27.90
2023-04-17T09:54:20.485Z,32.10
2023-04-17T09:57:31.869Z,27.10
2023-04-17T10:00:44.873Z,27.60
2023-04-17T10:03:56.091Z,26.20
2023-04-17T10:07:08.746Z,26.20
2023-04-17T10:10:19.556Z,23.00
2023-04-17T10:13:23.940Z,24.20
2023-04-17T10:16:35.811Z,26.60
2023-04-17T10:19:55.691Z,25.90
2023-04-17T10:22:44.912Z,23.70
2023-04-17T10:26:12.464Z,26.30
2023-04-17T10:29:49.136Z,22.00
2023-04-17T10:33:02.092Z,18.20
2023-04-17T10:36:08.113Z,19.90
2023-04-17T10:39:21.406Z,17.50
2023-04-17T10:42:34.689Z,15.20
2023-04-17T10:45:54.236Z,17.60
2023-04-17T10:49:01.858Z,16.50
2023-04-17T10:51:59.213Z,18.70
2023-04-17T10:55:13.025Z,16.50
2023-04-17T10:58:11.152Z,16.60
2023-04-17T11:01:24.700Z,18.20
2023-04-17T11:04:36.523Z,19.70
2023-04-17T11:07:47.302Z,17.80
2023-04-17T11:11:06.432Z,18.60
2023-04-17T11:14:26.638Z,17.80
2023-04-17T11:17:37.830Z,16.00
2023-04-17T11:20:58.409Z,20.80
2023-04-17T11:24:09.136Z,17.10
2023-04-17T11:27:26.560Z,16.90
2023-04-17T11:30:37.652Z,16.70
2023-04-17T11:33:58.053Z,17.20
2023-04-17T11:37:11.975Z,15.90
2023-04-17T11:40:32.175Z,17.40
2023-04-17T11:43:45.031Z,17.40
2023-04-17T11:46:57.757Z,18.10
2023-04-17T11:50:27.225Z,18.70
2023-04-17T11:53:47.339Z,17.50
2023-04-17T11:56:46.762Z,18.10
2023-04-17T11:59:58.721Z,18.20
2023-04-17T12:03:09.783Z,19.30
2023-04-17T12:06:25.069Z,15.80
2023-04-17T12:09:30.599Z,16.90
2023-04-17T12:12:54.237Z,18.20
2023-04-17T12:16:07.558Z,17.70
2023-04-17T12:19:22.457Z,15.30
2023-04-17T12:22:49.926Z,19.30
2023-04-17T12:26:01.471Z,16.60
2023-04-17T12:29:12.375Z,17.20
2023-04-17T12:32:23.198Z,17.20
2023-04-17T12:35:43.259Z,16.90
2023-04-17T12:38:56.242Z,17.70
2023-04-17T12:42:08.882Z,18.10
2023-04-17T12:45:20.923Z,17.00
2023-04-17T12:48:40.254Z,18.10
2023-04-17T12:51:52.181Z,19.80
2023-04-17T12:55:15.268Z,22.00
2023-04-17T12:58:27.359Z,18.90
2023-04-17T13:01:40.887Z,17.50
2023-04-17T13:04:53.488Z,21.20
2023-04-17T13:08:04.815Z,18.60
2023-04-17T13:11:25.121Z,20.20
2023-04-17T13:14:40.548Z,19.30
2023-04-17T13:17:53.727Z,20.50
2023-04-17T13:20:56.474Z,18.00
2023-04-17T13:24:24.179Z,20.60
2023-04-17T13:27:36.068Z,20.60
2023-04-17T13:30:42.943Z,24.20
2023-04-17T13:33:53.842Z,20.80
2023-04-17T13:37:05.765Z,19.00
2023-04-17T13:40:24.845Z,20.80
2023-04-17T13:43:45.409Z,19.90
2023-04-17T13:46:56.139Z,20.10
2023-04-17T13:50:09.090Z,19.60
2023-04-17T13:53:22.406Z,19.10
2023-04-17T13:56:28.762Z,17.00
2023-04-17T13:59:41.820Z,16.80
2023-04-17T14:03:01.993Z,16.00
2023-04-17T14:06:14.719Z,17.80
2023-04-17T14:09:30.492Z,16.70
2023-04-17T14:12:41.429Z,18.10
2023-04-17T14:15:52.814Z,14.50
2023-04-17T14:19:12.576Z,14.80
2023-04-17T14:22:41.365Z,15.70
2023-04-17T14:25:52.977Z,14.70
2023-04-17T14:29:05.035Z,15.50
2023-04-17T14:32:16.084Z,14.00
2023-04-17T14:35:36.340Z,15.40
2023-04-17T14:38:55.576Z,13.00
2023-04-17T14:42:15.327Z,15.00
2023-04-17T14:45:25.301Z,12.20
2023-04-17T14:48:47.934Z,13.40
2023-04-17T14:52:06.882Z,11.90
2023-04-17T14:55:20.812Z,11.00
2023-04-17T14:58:25.090Z,8.00
2023-04-17T15:01:36.830Z,7.10
2023-04-17T15:04:56.280Z,7.40
2023-04-17T15:08:23.793Z,5.60
2023-04-17T15:11:34.829Z,7.30
2023-04-17T15:14:54.014Z,5.60
2023-04-17T15:18:05.814Z,6.50
2023-04-17T15:21:16.651Z,4.80
2023-04-17T15:24:23.640Z,6.00
2023-04-17T15:27:35.979Z,5.60
2023-04-17T15:30:48.702Z,6.50
2023-04-17T15:33:53.605Z,5.20
2023-04-17T15:37:04.670Z,6.40
2023-04-17T15:40:26.358Z,7.30
2023-04-17T15:43:38.859Z,7.30
2023-04-17T15:46:51.938Z,7.40
2023-04-17T15:50:04.696Z,7.20
2023-04-17T15:53:17.510Z,9.50
2023-04-17T15:56:29.656Z,8.10
2023-04-17T15:59:41.718Z,7.20
2023-04-17T16:02:52.688Z,8.50
2023-04-17T16:06:05.910Z,7.40
2023-04-17T16:09:08.385Z,7.20
2023-04-17T16:12:20.353Z,9.50
2023-04-17T16:15:40.693Z,7.10
2023-04-17T16:19:07.859Z,10.30
2023-04-17T16:22:26.972Z,8.10
2023-04-17T16:25:39.131Z,8.10
2023-04-17T16:28:52.745Z,5.90
2023-04-17T16:32:03.530Z,6.20
2023-04-17T16:35:23.467Z,6.60
2023-04-17T16:38:34.199Z,6.20
2023-04-17T16:41:47.384Z,5.60
2023-04-17T16:45:00.534Z,5.40
2023-04-17T16:48:11.668Z,4.80
2023-04-17T16:51:33.750Z,5.30
2023-04-17T16:54:52.874Z,5.10
2023-04-17T16:58:05.900Z,5.10
2023-04-17T17:01:26.074Z,5.80
2023-04-17T17:04:36.846Z,6.60
2023-04-17T17:07:48.694Z,6.60
2023-04-17T17:11:08.805Z,6.60
2023-04-17T17:14:19.595Z,6.80
2023-04-17T17:17:32.804Z,5.80
2023-04-17T17:20:44.159Z,5.30
2023-04-17T17:23:57.300Z,5.90
2023-04-17T17:27:15.939Z,5.10
2023-04-17T17:30:29.001Z,6.30
2023-04-17T17:33:41.868Z,6.40
2023-04-17T17:37:02.020Z,7.90
2023-04-17T17:40:17.755Z,6.20
2023-04-17T17:43:37.524Z,9.10
2023-04-17T17:46:57.691Z,6.70
2023-04-17T17:50:17.739Z,7.60
2023-04-17T17:53:37.875Z,7.80
2023-04-17T17:56:57.106Z,8.00
2023-04-17T18:00:09.135Z,6.80
2023-04-17T18:03:22.517Z,4.80
2023-04-17T18:06:42.172Z,4.60
2023-04-17T18:09:54.828Z,6.30
2023-04-17T18:13:06.754Z,5.60
2023-04-17T18:16:17.627Z,7.40
2023-04-17T18:19:28.460Z,7.30
2023-04-17T18:22:39.371Z,5.50
2023-04-17T18:25:50.262Z,5.50
2023-04-17T18:29:11.335Z,6.40
2023-04-17T18:32:23.691Z,7.00
2023-04-17T18:35:51.363Z,7.00
2023-04-17T18:39:02.160Z,10.10
2023-04-17T18:42:14.213Z,12.20
2023-04-17T18:45:28.999Z,9.70
2023-04-17T18:48:49.154Z,8.80
2023-04-17T18:52:09.714Z,14.30
2023-04-17T18:55:29.505Z,10.70
2023-04-17T18:58:40.732Z,12.90
2023-04-17T19:01:52.405Z,11.50
2023-04-17T19:05:05.656Z,11.60
2023-04-17T19:08:18.597Z,10.10
2023-04-17T19:11:30.518Z,10.90
2023-04-17T19:14:49.651Z,9.80
2023-04-17T19:18:03.016Z,11.00
2023-04-17T19:21:14.773Z,10.10
2023-04-17T19:24:42.373Z,10.60
2023-04-17T19:28:02.407Z,9.40
2023-04-17T19:31:14.858Z,11.00
2023-04-17T19:34:33.314Z,11.30
2023-04-17T19:38:01.554Z,9.30
2023-04-17T19:41:14.739Z,11.00
2023-04-17T19:44:28.490Z,11.70
2023-04-17T19:47:39.666Z,8.80
2023-04-17T19:50:52.084Z,12.80
2023-04-17T19:54:12.441Z,12.80
2023-04-17T19:57:24.451Z,14.90
2023-04-17T20:00:35.572Z,13.20
2023-04-17T20:03:47.698Z,13.00
2023-04-17T20:06:59.292Z,13.10
2023-04-17T20:10:16.582Z,12.40
2023-04-17T20:13:24.123Z,12.50
2023-04-17T20:16:52.676Z,12.80
2023-04-17T20:20:05.823Z,14.40
2023-04-17T20:23:18.241Z,14.10
2023-04-17T20:26:38.569Z,14.00
2023-04-17T20:29:49.781Z,14.20
2023-04-17T20:33:09.122Z,14.40
2023-04-17T20:36:28.604Z,16.30
2023-04-17T20:39:34.798Z,14.30
2023-04-17T20:42:46.841Z,16.10
2023-04-17T20:45:58.614Z,16.20
2023-04-17T20:49:10.818Z,15.60
2023-04-17T20:52:14.525Z,17.10
2023-04-17T20:55:25.304Z,13.80
2023-04-17T20:58:37.146Z,17.00
2023-04-17T21:01:49.114Z,17.70
2023-04-17T21:05:00.902Z,15.20
2023-04-17T21:08:28.498Z,15.70
2023-04-17T21:11:39.195Z,15.20
2023-04-17T21:15:06.777Z,16.80
2023-04-17T21:18:26.918Z,15.90
2023-04-17T21:21:38.719Z,15.20
2023-04-17T21:25:06.316Z,13.90
2023-04-17T21:28:26.895Z,16.20
2023-04-17T21:31:38.700Z,17.70
2023-04-17T21:34:49.813Z,15.50
2023-04-17T21:38:02.166Z,15.40
2023-04-17T21:41:21.395Z,13.60
2023-04-17T21:44:35.521Z,15.30
2023-04-17T21:47:57.184Z,13.80
2023-04-17T21:51:10.117Z,15.20
2023-04-17T21:54:29.769Z,17.20
2023-04-17T21:57:49.081Z,15.30
2023-04-17T22:01:10.090Z,12.70
2023-04-17T22:04:30.633Z,16.70
2023-04-17T22:07:55.352Z,15.70
2023-04-17T22:10:59.332Z,15.10
2023-04-17T22:14:11.197Z,12.10
2023-04-17T22:17:23.583Z,14.00
2023-04-17T22:20:28.436Z,14.40
2023-04-17T22:23:21.058Z,12.10
2023-04-17T22:26:20.711Z,14.00
2023-04-17T22:29:30.904Z,13.00
2023-04-17T22:32:23.114Z,10.10
2023-04-17T22:35:25.881Z,10.00
2023-04-17T22:38:21.290Z,11.50
2023-04-17T22:41:21.870Z,11.20
2023-04-17T22:44:16.282Z,10.80
2023-04-17T22:47:28.837Z,10.40
2023-04-17T22:50:28.240Z,12.80
2023-04-17T22:53:23.398Z,10.20
2023-04-17T22:56:39.432Z,12.30
2023-04-17T22:59:33.020Z,12.50
2023-04-17T23:02:49.688Z,10.40
2023-04-17T23:05:48.657Z,12.90
2023-04-17T23:08:59.429Z,12.70
2023-04-17T23:12:10.160Z,12.80
2023-04-17T23:15:22.321Z,12.50
2023-04-17T23:18:50.461Z,15.40
2023-04-17T23:22:09.670Z,13.10
2023-04-17T23:25:20.512Z,12.10
2023-04-17T23:28:31.212Z,12.30
2023-04-17T23:31:44.013Z,12.30
2023-04-17T23:34:55.776Z,14.70
2023-04-17T23:38:08.239Z,14.10
2023-04-17T23:41:21.866Z,14.50
2023-04-17T23:44:42.088Z,14.90
2023-04-17T23:48:02.234Z,16.70
2023-04-17T23:51:15.056Z,14.60
2023-04-17T23:54:35.152Z,13.70
2023-04-17T23:57:48.316Z,15.50
